Time;durP1;ratioP1;P1;durP2;ratioP2;P2;SDS_P1;SDS_P2;PMS_P1;PMS_P2;Temp;Humidity;BMP_temperature;BMP_pressure;BME280_temperature;BME280_humidity;BME280_pressure;Samples;Min_cycle;Max_cycle;Signal;HPM_P1;HPM_P2
2023/01/26 00:01:23;;;;;;;93.25;23.77;;;-2.10;99.90;;;;;;5080642;28;25132;-75
2023/01/26 00:03:50;;;;;;;103.28;25.48;;;-2.10;99.90;;;;;;5080620;28;25072;-75
2023/01/26 00:06:19;;;;;;;99.43;26.92;;;-2.10;99.90;;;;;;5080522;28;25088;-75
2023/01/26 00:08:52;;;;;;;97.78;26.15;;;-2.20;99.90;;;;;;5098680;28;25070;-75
2023/01/26 00:11:29;;;;;;;109.25;27.40;;;-2.20;99.90;;;;;;5098385;28;25059;-75
2023/01/26 00:13:58;;;;;;;101.32;27.10;;;-2.20;99.90;;;;;;5098669;28;25054;-75
2023/01/26 00:16:26;;;;;;;99.80;27.92;;;-2.20;99.90;;;;;;5098289;28;25067;-75
2023/01/26 00:18:53;;;;;;;103.32;28.90;;;-2.20;99.90;;;;;;5099033;28;25067;-75
2023/01/26 00:21:22;;;;;;;100.53;28.33;;;-2.20;99.90;;;;;;5098457;28;25080;-75
2023/01/26 00:23:51;;;;;;;94.50;27.50;;;-2.30;99.90;;;;;;5098203;28;25085;-75
2023/01/26 00:26:21;;;;;;;96.70;30.45;;;-2.30;99.90;;;;;;5098035;28;25117;-75
2023/01/26 00:28:48;;;;;;;99.88;27.30;;;-2.20;99.90;;;;;;5098549;28;25112;-75
2023/01/26 00:31:21;;;;;;;96.35;30.08;;;-2.20;99.90;;;;;;5098003;28;25093;-75
2023/01/26 00:33:49;;;;;;;104.95;28.85;;;-2.20;99.90;;;;;;5098262;28;25053;-75
2023/01/26 00:36:17;;;;;;;89.63;28.88;;;-2.20;99.90;;;;;;5079905;28;25126;-76
2023/01/26 00:38:44;;;;;;;78.72;26.67;;;-2.20;99.90;;;;;;5098266;28;25099;-75
2023/01/26 00:44:00;;;;;;;84.85;27.73;;;-2.20;99.90;;;;;;5066536;28;25052;-75
2023/01/26 00:46:28;;;;;;;86.35;28.77;;;-2.20;99.90;;;;;;5079628;28;25050;-75
2023/01/26 00:48:55;;;;;;;84.38;26.95;;;-2.20;99.90;;;;;;5097297;28;25065;-75
2023/01/26 00:51:22;;;;;;;82.65;27.55;;;-2.20;99.90;;;;;;5098187;28;25096;-75
2023/01/26 00:53:49;;;;;;;87.93;28.40;;;-2.20;99.90;;;;;;5098099;28;25076;-75
2023/01/26 00:56:16;;;;;;;101.53;30.25;;;-2.20;99.90;;;;;;5079529;28;25074;-75
2023/01/26 00:58:44;;;;;;;93.70;27.88;;;-2.20;99.90;;;;;;5079559;28;25073;-75
2023/01/26 01:01:11;;;;;;;87.63;28.65;;;-2.20;99.90;;;;;;5098206;28;25072;-75
2023/01/26 01:03:39;;;;;;;84.20;26.70;;;-2.20;99.90;;;;;;5097973;28;25110;-76
2023/01/26 01:06:06;;;;;;;78.55;26.42;;;-2.20;99.90;;;;;;5097296;28;25077;-75
2023/01/26 01:08:34;;;;;;;87.53;27.90;;;-2.20;99.90;;;;;;5097747;28;25055;-76
2023/01/26 01:11:05;;;;;;;90.47;28.90;;;-2.20;99.90;;;;;;5098395;28;25118;-75
2023/01/26 01:13:33;;;;;;;91.38;29.40;;;-2.20;99.90;;;;;;5097544;28;25108;-75
2023/01/26 01:16:04;;;;;;;101.72;29.67;;;-2.20;99.90;;;;;;5097178;28;25095;-75
2023/01/26 01:18:31;;;;;;;90.03;30.35;;;-2.20;99.90;;;;;;5097259;28;25119;-75
2023/01/26 01:20:58;;;;;;;83.15;27.25;;;-2.20;99.90;;;;;;5079071;28;25074;-75
2023/01/26 01:23:28;;;;;;;102.75;29.45;;;-2.20;99.90;;;;;;5097659;28;25065;-75
2023/01/26 01:25:59;;;;;;;86.80;27.67;;;-2.20;99.90;;;;;;5078915;28;25084;-76
2023/01/26 01:28:26;;;;;;;89.18;28.77;;;-2.20;99.90;;;;;;5097968;28;25117;-75
2023/01/26 01:30:54;;;;;;;93.72;30.80;;;-2.20;99.90;;;;;;5097180;28;25083;-75
2023/01/26 01:33:22;;;;;;;93.80;29.95;;;-2.20;99.90;;;;;;5097217;28;25077;-75
2023/01/26 01:36:12;;;;;;;87.22;28.58;;;-2.20;99.90;;;;;;5078887;28;25066;-76
2023/01/26 01:38:39;;;;;;;88.28;29.95;;;-2.20;99.90;;;;;;5096988;28;25049;-75
2023/01/26 01:41:06;;;;;;;94.68;27.92;;;-2.20;99.90;;;;;;5096822;28;25051;-75
2023/01/26 01:43:35;;;;;;;85.63;29.48;;;-2.20;99.90;;;;;;5096761;28;25120;-75
2023/01/26 01:46:13;;;;;;;87.30;30.08;;;-2.10;99.90;;;;;;5078618;28;25130;-75
2023/01/26 01:48:50;;;;;;;98.50;30.50;;;-2.10;99.90;;;;;;5097105;28;25073;-75
2023/01/26 01:51:42;;;;;;;90.72;28.50;;;-2.20;99.90;;;;;;5096881;28;25072;-75
2023/01/26 01:54:15;;;;;;;90.18;30.92;;;-2.20;99.90;;;;;;5078640;28;25058;-75
2023/01/26 01:56:50;;;;;;;96.45;29.92;;;-2.20;99.90;;;;;;5096560;28;25077;-75
2023/01/26 01:59:20;;;;;;;91.70;32.03;;;-2.10;99.90;;;;;;5096086;28;25063;-75
2023/01/26 02:01:49;;;;;;;89.72;28.10;;;-2.10;99.90;;;;;;5096475;28;25083;-75
2023/01/26 02:04:18;;;;;;;81.35;27.67;;;-2.10;99.90;;;;;;5096502;28;25119;-75
2023/01/26 02:06:50;;;;;;;109.18;31.63;;;-2.10;99.90;;;;;;5096378;28;25142;-75
2023/01/26 02:12:26;;;;;;;90.03;27.38;;;-2.10;99.90;;;;;;5096714;28;25071;-76
2023/01/26 02:14:54;;;;;;;88.05;28.70;;;-2.10;99.90;;;;;;5078485;28;25062;-76
2023/01/26 02:17:21;;;;;;;91.93;29.00;;;-2.10;99.90;;;;;;5078549;28;25101;-76
2023/01/26 02:20:08;;;;;;;90.15;32.35;;;-2.00;99.90;;;;;;5096574;28;25051;-75
2023/01/26 02:22:56;;;;;;;95.70;31.80;;;-2.00;99.90;;;;;;5096766;28;25104;-75
2023/01/26 02:25:47;;;;;;;94.03;29.50;;;-2.00;99.90;;;;;;5096750;28;25068;-75
2023/01/26 02:28:16;;;;;;;83.30;24.17;;;-2.00;99.90;;;;;;5096607;28;25105;-75
2023/01/26 02:30:43;;;;;;;87.55;27.95;;;-1.90;99.90;;;;;;5096492;28;25073;-75
2023/01/26 02:33:26;;;;;;;89.65;28.17;;;-1.90;99.90;;;;;;5079247;28;25071;-75
2023/01/26 02:35:54;;;;;;;93.28;26.48;;;-1.90;99.90;;;;;;5096170;28;25072;-75
2023/01/26 02:38:24;;;;;;;84.55;27.15;;;-1.80;99.90;;;;;;5096452;28;25058;-75
2023/01/26 02:44:10;;;;;;;82.78;27.38;;;-1.80;99.90;;;;;;5072793;28;25118;-75
2023/01/26 02:46:38;;;;;;;89.70;29.63;;;-1.70;99.90;;;;;;5075748;28;25120;-75
2023/01/26 02:51:50;;;;;;;82.53;25.58;;;-1.70;99.90;;;;;;5076157;28;25065;-75
2023/01/26 02:57:04;;;;;;;86.33;26.27;;;-1.70;99.90;;;;;;5076187;28;25114;-75
2023/01/26 02:59:31;;;;;;;88.88;25.80;;;-1.60;99.90;;;;;;5075759;28;25101;-76
2023/01/26 03:01:59;;;;;;;97.80;28.42;;;-1.60;99.90;;;;;;5076305;28;25053;-76
2023/01/26 03:04:26;;;;;;;90.78;28.15;;;-1.60;99.90;;;;;;5076457;28;25061;-76
2023/01/26 03:06:54;;;;;;;86.78;27.85;;;-1.60;99.90;;;;;;5075597;28;25131;-75
2023/01/26 03:09:22;;;;;;;91.68;29.25;;;-1.60;99.90;;;;;;5075716;28;25075;-75
2023/01/26 03:11:50;;;;;;;93.60;28.40;;;-1.60;99.90;;;;;;5060399;28;25086;-75
2023/01/26 03:14:17;;;;;;;97.63;29.80;;;-1.60;99.90;;;;;;5079470;28;25064;-75
2023/01/26 03:16:44;;;;;;;95.80;28.50;;;-1.60;99.90;;;;;;5061492;28;25060;-75
2023/01/26 03:27:46;;;;;;;103.47;30.58;;;-1.70;99.90;;;;;;5078944;28;25053;-75
2023/01/26 03:30:16;;;;;;;90.72;29.83;;;-1.70;99.90;;;;;;5079242;28;25047;-75
2023/01/26 03:32:43;;;;;;;90.55;28.25;;;-1.70;99.90;;;;;;5079435;28;25079;-75
2023/01/26 03:35:21;;;;;;;95.10;31.20;;;-1.70;99.90;;;;;;5078893;28;25070;-76
2023/01/26 03:37:53;;;;;;;92.57;30.08;;;-1.80;99.90;;;;;;5078850;28;25078;-76
2023/01/26 03:56:57;;;;;;;102.13;29.38;;;-1.80;99.90;;;;;;5078575;28;25116;-75
2023/01/26 03:59:37;;;;;;;92.05;26.55;;;-1.80;99.90;;;;;;5078405;28;25090;-75
2023/01/26 04:10:27;;;;;;;95.68;28.13;;;-1.80;99.90;;;;;;5078519;28;25054;-75
2023/01/26 04:21:26;;;;;;;95.57;28.08;;;-1.70;99.90;;;;;;5078266;28;25053;-75
2023/01/26 04:23:56;;;;;;;93.28;28.85;;;-1.80;99.90;;;;;;5077259;28;25050;-75
2023/01/26 04:26:24;;;;;;;93.65;28.42;;;-1.70;99.90;;;;;;5078051;28;25050;-75
2023/01/26 04:28:52;;;;;;;89.78;27.50;;;-1.70;99.90;;;;;;5060138;28;25047;-75
2023/01/26 04:31:18;;;;;;;100.18;28.05;;;-1.70;99.90;;;;;;5060013;28;25108;-75
2023/01/26 04:33:46;;;;;;;94.68;27.73;;;-1.70;99.90;;;;;;5078198;28;25148;-75
2023/01/26 04:36:13;;;;;;;99.93;28.48;;;-1.70;99.90;;;;;;5077662;28;25054;-75
2023/01/26 04:38:40;;;;;;;90.95;26.65;;;-1.70;99.90;;;;;;5077923;28;25133;-75
2023/01/26 04:41:07;;;;;;;91.50;27.63;;;-1.70;99.90;;;;;;5077516;28;25060;-75
2023/01/26 04:43:34;;;;;;;87.15;27.73;;;-1.70;99.90;;;;;;5098090;28;25119;-75
2023/01/26 04:46:04;;;;;;;97.03;29.27;;;-1.60;99.90;;;;;;5097737;28;25069;-75
2023/01/26 04:48:33;;;;;;;90.25;29.02;;;-1.60;99.90;;;;;;5097686;28;25117;-76
2023/01/26 04:51:06;;;;;;;97.20;29.33;;;-1.60;99.90;;;;;;5098209;28;25066;-75
2023/01/26 04:53:34;;;;;;;93.43;26.63;;;-1.60;99.90;;;;;;5079724;28;25084;-75
2023/01/26 04:56:01;;;;;;;94.25;26.35;;;-1.60;99.90;;;;;;5097585;28;25136;-75
2023/01/26 04:58:29;;;;;;;87.80;25.80;;;-1.60;99.90;;;;;;5097711;28;25062;-75
2023/01/26 05:00:57;;;;;;;78.32;26.40;;;-1.60;99.90;;;;;;5097754;28;25070;-75
2023/01/26 05:03:25;;;;;;;87.90;25.15;;;-1.60;99.90;;;;;;5098009;28;25116;-75
2023/01/26 05:05:54;;;;;;;94.53;28.70;;;-1.60;99.90;;;;;;5097866;28;25072;-75
2023/01/26 05:08:22;;;;;;;94.85;27.05;;;-1.60;99.90;;;;;;5079556;28;25072;-75
2023/01/26 05:10:51;;;;;;;95.35;29.95;;;-1.60;99.90;;;;;;5097578;28;25136;-75
2023/01/26 05:13:18;;;;;;;94.95;29.13;;;-1.60;99.90;;;;;;5097217;28;25052;-75
2023/01/26 05:15:46;;;;;;;81.47;26.90;;;-1.60;99.90;;;;;;5097449;28;25050;-75
2023/01/26 05:18:14;;;;;;;79.50;25.90;;;-1.60;99.90;;;;;;5097623;28;25054;-75
2023/01/26 05:20:42;;;;;;;89.13;28.27;;;-1.60;99.90;;;;;;5097124;28;25093;-75
2023/01/26 05:23:09;;;;;;;96.55;29.60;;;-1.60;99.90;;;;;;5097614;28;25108;-75
2023/01/26 05:25:36;;;;;;;92.65;27.40;;;-1.60;99.90;;;;;;5078937;28;25050;-75
2023/01/26 05:28:04;;;;;;;90.57;27.15;;;-1.60;99.90;;;;;;5097175;28;25109;-75
2023/01/26 05:30:32;;;;;;;84.03;23.73;;;-1.60;99.90;;;;;;5096916;28;25115;-75
2023/01/26 05:33:03;;;;;;;79.20;26.15;;;-1.60;99.90;;;;;;5097498;28;25069;-76
2023/01/26 05:35:30;;;;;;;58.10;20.70;;;-1.60;99.90;;;;;;5096780;28;25064;-74
2023/01/26 05:37:58;;;;;;;90.30;25.20;;;-1.60;99.90;;;;;;5096981;28;25139;-73
2023/01/26 05:40:25;;;;;;;80.43;24.45;;;-1.60;99.90;;;;;;5097331;28;25077;-79
2023/01/26 05:42:53;;;;;;;78.45;24.35;;;-1.70;99.90;;;;;;5075331;28;25092;-78
2023/01/26 05:45:21;;;;;;;78.63;24.42;;;-1.60;99.90;;;;;;5075379;28;25062;-79
2023/01/26 05:47:48;;;;;;;83.95;24.27;;;-1.60;99.90;;;;;;5074851;28;25102;-80
2023/01/26 05:50:16;;;;;;;77.93;24.92;;;-1.60;99.90;;;;;;5076481;28;25065;-86
2023/01/26 05:52:45;;;;;;;79.90;23.75;;;-1.60;99.90;;;;;;5076745;28;25055;-76
2023/01/26 05:55:13;;;;;;;85.40;27.15;;;-1.60;99.90;;;;;;5076268;28;25071;-80
2023/01/26 05:57:40;;;;;;;85.10;26.33;;;-1.60;99.90;;;;;;5076362;28;25073;-77
2023/01/26 06:00:08;;;;;;;77.88;23.42;;;-1.60;99.90;;;;;;5076289;28;25069;-83
2023/01/26 06:02:35;;;;;;;75.10;25.17;;;-1.60;99.90;;;;;;5076624;28;25144;-76
2023/01/26 06:05:04;;;;;;;77.85;23.08;;;-1.60;99.90;;;;;;5077033;28;25076;-77
2023/01/26 06:07:31;;;;;;;73.93;24.70;;;-1.60;99.90;;;;;;5076503;28;25075;-76
2023/01/26 06:10:01;;;;;;;75.90;25.27;;;-1.60;99.90;;;;;;5076215;28;25067;-76
2023/01/26 06:12:34;;;;;;;81.80;26.20;;;-1.50;99.90;;;;;;5076392;28;25132;-76
2023/01/26 06:15:02;;;;;;;80.03;27.83;;;-1.50;99.90;;;;;;5076071;28;25125;-78
2023/01/26 06:17:30;;;;;;;84.95;25.65;;;-1.50;99.90;;;;;;5075081;28;25062;-77
2023/01/26 06:19:57;;;;;;;83.68;26.98;;;-1.50;99.90;;;;;;5075023;28;25055;-77
2023/01/26 06:22:24;;;;;;;93.50;26.80;;;-1.50;99.90;;;;;;5076209;28;25051;-73
2023/01/26 06:24:52;;;;;;;87.90;26.25;;;-1.50;99.90;;;;;;5075386;28;25057;-76
2023/01/26 06:27:19;;;;;;;84.00;26.70;;;-1.50;99.90;;;;;;5076012;28;25074;-71
2023/01/26 06:29:46;;;;;;;88.15;26.60;;;-1.50;99.90;;;;;;5074988;28;25069;-75
2023/01/26 06:32:14;;;;;;;83.63;25.77;;;-1.50;99.90;;;;;;5076205;28;25065;-80
2023/01/26 06:34:42;;;;;;;79.82;24.88;;;-1.50;99.90;;;;;;5076005;28;25063;-73
2023/01/26 06:37:12;;;;;;;85.22;26.73;;;-1.40;99.90;;;;;;5076257;28;25074;-72
2023/01/26 06:39:40;;;;;;;89.18;28.02;;;-1.50;99.90;;;;;;5075919;28;25073;-73
2023/01/26 06:42:08;;;;;;;97.88;27.83;;;-1.50;99.90;;;;;;5084393;28;25072;-72
2023/01/26 06:44:36;;;;;;;73.57;25.50;;;-1.50;99.90;;;;;;5096055;28;25078;-72
2023/01/26 06:47:06;;;;;;;72.45;26.92;;;-1.50;99.90;;;;;;5099147;28;25073;-73
2023/01/26 06:49:33;;;;;;;73.82;23.42;;;-1.50;99.90;;;;;;5100069;28;25117;-74
2023/01/26 06:52:20;;;;;;;76.80;24.55;;;-1.50;99.90;;;;;;5100221;28;25075;-74
2023/01/26 06:54:53;;;;;;;82.47;25.80;;;-1.50;99.90;;;;;;5099956;28;25103;-73
2023/01/26 06:57:21;;;;;;;80.68;23.58;;;-1.50;99.90;;;;;;5099930;28;25128;-74
2023/01/26 06:59:50;;;;;;;88.82;26.33;;;-1.50;99.90;;;;;;5099745;28;25076;-74
2023/01/26 07:02:20;;;;;;;86.93;27.00;;;-1.50;99.90;;;;;;5100243;28;25070;-74
2023/01/26 07:04:49;;;;;;;86.50;26.40;;;-1.50;99.90;;;;;;5099772;28;25126;-74
2023/01/26 07:07:16;;;;;;;74.38;23.92;;;-1.50;99.90;;;;;;5099649;28;25148;-74
2023/01/26 07:09:44;;;;;;;86.57;26.42;;;-1.50;99.90;;;;;;5081624;28;25098;-74
2023/01/26 07:12:11;;;;;;;88.50;26.33;;;-1.50;99.90;;;;;;5100766;28;25107;-74
2023/01/26 07:14:39;;;;;;;76.35;25.27;;;-1.50;99.90;;;;;;5100098;28;25051;-74
2023/01/26 07:17:06;;;;;;;75.15;23.75;;;-1.50;99.90;;;;;;5099768;28;25075;-74
2023/01/26 07:19:34;;;;;;;59.55;21.98;;;-1.50;99.90;;;;;;5081470;28;25041;-74
2023/01/26 07:22:01;;;;;;;66.03;21.92;;;-1.50;99.90;;;;;;5081511;28;25057;-74
2023/01/26 07:24:29;;;;;;;70.78;22.05;;;-1.50;99.90;;;;;;5099276;28;25058;-74
2023/01/26 07:26:57;;;;;;;69.07;21.73;;;-1.50;99.90;;;;;;5099240;28;25076;-74
2023/01/26 07:29:25;;;;;;;74.93;24.52;;;-1.50;99.90;;;;;;5099701;28;25073;-74
2023/01/26 07:31:52;;;;;;;59.85;22.52;;;-1.50;99.90;;;;;;5099245;28;25053;-74
2023/01/26 07:34:20;;;;;;;68.55;22.55;;;-1.40;99.90;;;;;;5081264;28;25075;-74
2023/01/26 07:36:51;;;;;;;63.95;22.73;;;-1.40;99.90;;;;;;5081187;28;25075;-74
2023/01/26 07:39:19;;;;;;;69.85;23.95;;;-1.40;99.90;;;;;;5099864;28;25109;-74
2023/01/26 07:41:48;;;;;;;63.00;20.45;;;-1.40;99.90;;;;;;5098893;28;25154;-74
2023/01/26 07:44:15;;;;;;;64.80;21.52;;;-1.30;99.90;;;;;;5099306;28;25076;-74
2023/01/26 07:46:43;;;;;;;58.58;21.10;;;-1.30;99.90;;;;;;5099346;28;25092;-74
2023/01/26 07:49:11;;;;;;;63.38;22.73;;;-1.30;99.90;;;;;;5081124;28;25075;-74
2023/01/26 07:51:39;;;;;;;76.93;22.77;;;-1.30;99.90;;;;;;5098867;28;25056;-74
2023/01/26 07:54:11;;;;;;;63.47;22.92;;;-1.30;99.90;;;;;;5099167;28;25154;-74
2023/01/26 07:56:38;;;;;;;63.00;20.95;;;-1.20;99.90;;;;;;5098161;28;25071;-74
2023/01/26 07:59:06;;;;;;;63.75;20.08;;;-1.20;99.90;;;;;;5098241;28;25052;-74
2023/01/26 08:01:34;;;;;;;64.13;22.02;;;-1.20;99.90;;;;;;5098689;28;25068;-74
2023/01/26 08:04:01;;;;;;;71.40;23.95;;;-1.20;99.90;;;;;;5099219;28;25128;-74
2023/01/26 08:06:29;;;;;;;60.60;21.33;;;-1.10;99.90;;;;;;5098477;28;25066;-74
2023/01/26 08:08:56;;;;;;;57.17;22.15;;;-1.10;99.90;;;;;;5099299;28;25063;-74
2023/01/26 08:11:25;;;;;;;61.00;20.77;;;-1.10;99.90;;;;;;5080818;28;25052;-74
2023/01/26 08:13:54;;;;;;;73.40;21.83;;;-1.10;99.90;;;;;;5099016;28;25067;-74
2023/01/26 08:16:21;;;;;;;64.93;23.40;;;-1.10;99.90;;;;;;5080476;28;25117;-73
2023/01/26 08:18:48;;;;;;;58.33;21.17;;;-1.10;99.90;;;;;;5080560;28;25063;-74
2023/01/26 08:21:17;;;;;;;63.35;21.55;;;-1.10;99.90;;;;;;5098584;28;25096;-74
2023/01/26 08:23:49;;;;;;;60.97;21.58;;;-1.10;99.90;;;;;;5098807;28;25060;-74
2023/01/26 08:26:18;;;;;;;62.70;21.25;;;-1.00;99.90;;;;;;5098125;28;25053;-74
2023/01/26 08:28:45;;;;;;;63.33;21.42;;;-1.00;99.90;;;;;;5098149;28;25138;-74
2023/01/26 08:31:19;;;;;;;54.38;20.92;;;-1.00;99.90;;;;;;5098059;28;25085;-74
2023/01/26 08:33:51;;;;;;;69.65;22.42;;;-1.00;99.90;;;;;;5098815;28;25081;-74
2023/01/26 08:36:18;;;;;;;59.55;22.45;;;-1.00;99.90;;;;;;5080226;28;25048;-74
2023/01/26 08:38:46;;;;;;;68.07;22.63;;;-1.00;99.90;;;;;;5080032;28;25057;-74
2023/01/26 08:41:14;;;;;;;57.00;21.98;;;-0.90;99.90;;;;;;5079720;28;25072;-74
2023/01/26 08:43:41;;;;;;;60.15;21.77;;;-0.90;99.90;;;;;;5098015;28;25057;-74
2023/01/26 08:46:09;;;;;;;54.05;22.88;;;-0.90;99.90;;;;;;5063211;28;25052;-74
2023/01/26 08:48:37;;;;;;;65.70;24.75;;;-0.90;99.90;;;;;;5098308;28;25114;-74
2023/01/26 08:51:06;;;;;;;72.93;23.65;;;-0.90;99.90;;;;;;5079733;28;25056;-74
2023/01/26 08:53:36;;;;;;;71.90;23.65;;;-0.90;99.90;;;;;;5098154;28;25091;-74
2023/01/26 08:56:05;;;;;;;69.97;23.58;;;-0.80;99.90;;;;;;5097568;28;25050;-74
2023/01/26 08:58:33;;;;;;;67.43;23.80;;;-0.80;99.90;;;;;;5097909;28;25099;-74
2023/01/26 09:01:05;;;;;;;69.78;23.50;;;-0.70;99.90;;;;;;5097486;28;25135;-74
2023/01/26 09:03:33;;;;;;;66.43;23.13;;;-0.70;99.90;;;;;;5097842;28;25062;-73
2023/01/26 09:06:01;;;;;;;66.10;23.58;;;-0.70;99.90;;;;;;5079229;28;25102;-74
2023/01/26 09:08:28;;;;;;;63.75;23.65;;;-0.60;99.90;;;;;;5097500;28;25095;-74
2023/01/26 09:10:56;;;;;;;71.32;23.23;;;-0.60;99.90;;;;;;5079322;28;25064;-76
2023/01/26 09:13:23;;;;;;;61.45;21.73;;;-0.60;99.90;;;;;;5097376;28;25055;-74
2023/01/26 09:15:51;;;;;;;56.65;21.58;;;-0.50;99.90;;;;;;5079993;28;25106;-73
2023/01/26 09:18:18;;;;;;;60.92;22.60;;;-0.50;99.90;;;;;;5097093;28;25123;-73
2023/01/26 09:20:45;;;;;;;68.18;24.08;;;-0.50;99.90;;;;;;5097199;28;25054;-74
2023/01/26 09:23:15;;;;;;;62.83;22.55;;;-0.50;99.90;;;;;;5097286;28;25068;-73
2023/01/26 09:25:43;;;;;;;75.53;22.92;;;-0.50;99.90;;;;;;5096829;28;25061;-74
2023/01/26 09:28:11;;;;;;;67.38;24.65;;;-0.50;99.90;;;;;;5097038;28;25056;-73
2023/01/26 09:30:38;;;;;;;67.90;22.23;;;-0.40;99.90;;;;;;5096924;28;25051;-73
2023/01/26 09:33:06;;;;;;;67.80;25.05;;;-0.40;99.90;;;;;;5097066;28;25055;-73
2023/01/26 09:35:33;;;;;;;59.58;23.55;;;-0.40;99.90;;;;;;5097329;28;25071;-74
2023/01/26 09:38:00;;;;;;;67.93;23.92;;;-0.40;99.90;;;;;;5097152;28;25106;-74
2023/01/26 09:40:38;;;;;;;65.32;23.33;;;-0.30;99.90;;;;;;5097112;28;25147;-73
2023/01/26 09:43:17;;;;;;;63.22;21.70;;;-0.30;99.90;;;;;;5096737;28;25067;-72
2023/01/26 09:45:58;;;;;;;60.25;22.02;;;-0.30;99.90;;;;;;5096673;28;25094;-73
2023/01/26 09:48:49;;;;;;;60.75;23.35;;;-0.30;99.90;;;;;;5096879;28;25077;-76
2023/01/26 09:51:29;;;;;;;54.95;20.63;;;-0.30;99.90;;;;;;5096680;28;25057;-77
2023/01/26 09:54:15;;;;;;;61.17;20.35;;;-0.20;99.90;;;;;;5096848;28;25079;-78
2023/01/26 09:56:43;;;;;;;55.10;20.40;;;-0.20;99.90;;;;;;5096843;28;25067;-76
2023/01/26 09:59:30;;;;;;;62.70;20.73;;;-0.20;99.90;;;;;;5078734;28;25047;-77
2023/01/26 10:02:07;;;;;;;56.42;21.67;;;-0.20;99.90;;;;;;5096829;28;25070;-76
2023/01/26 10:04:40;;;;;;;68.63;22.38;;;-0.10;99.90;;;;;;5096772;28;25063;-76
2023/01/26 10:07:14;;;;;;;61.90;20.75;;;-0.10;99.90;;;;;;5096762;28;25133;-78
2023/01/26 10:09:49;;;;;;;58.15;21.23;;;-0.10;99.90;;;;;;5096432;28;25147;-75
2023/01/26 10:12:24;;;;;;;68.65;23.10;;;0.00;99.90;;;;;;5078518;28;25074;-75
2023/01/26 10:15:12;;;;;;;57.92;19.13;;;0.00;99.90;;;;;;5096417;28;25047;-75
2023/01/26 10:17:43;;;;;;;54.67;20.33;;;0.00;99.90;;;;;;5096848;28;25146;-74
2023/01/26 10:20:28;;;;;;;50.38;19.42;;;0.00;99.90;;;;;;5078521;28;25116;-74
2023/01/26 10:23:18;;;;;;;52.57;19.23;;;0.00;99.90;;;;;;5100934;28;25077;-77
2023/01/26 10:25:49;;;;;;;55.90;18.33;;;0.00;99.90;;;;;;5100684;28;25066;-75
2023/01/26 10:28:23;;;;;;;56.13;18.25;;;0.00;99.90;;;;;;5100606;28;25045;-78
2023/01/26 10:30:51;;;;;;;50.08;17.67;;;0.00;99.90;;;;;;5100413;28;25101;-77
2023/01/26 10:33:36;;;;;;;55.15;19.38;;;0.00;99.90;;;;;;5082412;28;25062;-78
2023/01/26 10:36:06;;;;;;;58.10;19.00;;;0.00;99.90;;;;;;5100867;28;25151;-77
2023/01/26 10:38:33;;;;;;;54.28;17.75;;;0.00;99.90;;;;;;5100718;28;25069;-78
2023/01/26 10:41:03;;;;;;;46.47;17.98;;;0.00;99.90;;;;;;5100467;28;25084;-76
2023/01/26 10:43:41;;;;;;;61.15;21.55;;;0.00;99.90;;;;;;5078708;28;25126;-73
2023/01/26 10:46:30;;;;;;;52.97;20.05;;;0.00;99.90;;;;;;5080351;28;25091;-72
2023/01/26 10:49:10;;;;;;;48.25;17.70;;;0.10;99.90;;;;;;5079995;28;25072;-73
2023/01/26 10:51:41;;;;;;;55.22;19.42;;;0.10;99.90;;;;;;5080018;28;25056;-73
2023/01/26 10:54:20;;;;;;;53.15;18.23;;;0.10;99.90;;;;;;5080323;28;25109;-74
2023/01/26 10:56:50;;;;;;;41.03;15.15;;;0.10;99.90;;;;;;5079584;28;25125;-73
2023/01/26 10:59:34;;;;;;;44.83;17.05;;;0.20;99.90;;;;;;5079780;28;25133;-73
2023/01/26 11:02:19;;;;;;;44.40;15.68;;;0.20;99.90;;;;;;5080144;28;25069;-73
2023/01/26 11:05:08;;;;;;;44.00;17.50;;;0.20;99.90;;;;;;5079758;28;25069;-75
2023/01/26 11:07:37;;;;;;;45.47;18.23;;;0.30;99.90;;;;;;5078418;28;25103;-73
2023/01/26 11:10:22;;;;;;;50.05;18.13;;;0.30;99.90;;;;;;5079407;28;25113;-74
2023/01/26 11:12:50;;;;;;;36.20;14.10;;;0.40;99.90;;;;;;5079613;28;25096;-73
2023/01/26 11:15:23;;;;;;;38.15;16.83;;;0.40;99.90;;;;;;5079284;28;25117;-73
2023/01/26 11:18:01;;;;;;;44.25;17.45;;;0.40;99.90;;;;;;5078359;28;25056;-74
2023/01/26 11:20:32;;;;;;;42.90;15.70;;;0.40;99.90;;;;;;5079153;28;25116;-77
2023/01/26 11:23:13;;;;;;;43.78;15.70;;;0.40;99.90;;;;;;5079482;28;25064;-75
2023/01/26 11:25:57;;;;;;;38.97;15.80;;;0.50;99.90;;;;;;5079326;28;25065;-75
2023/01/26 11:28:41;;;;;;;40.13;15.00;;;0.50;99.90;;;;;;5079553;28;25072;-72
2023/01/26 11:31:37;;;;;;;37.55;15.48;;;0.50;99.90;;;;;;5078630;28;25058;-73
2023/01/26 11:34:29;;;;;;;38.85;14.00;;;0.50;99.90;;;;;;5078979;28;25124;-72
2023/01/26 11:37:24;;;;;;;39.00;15.48;;;0.50;99.90;;;;;;5078927;28;25155;-73
2023/01/26 11:40:19;;;;;;;38.42;13.75;;;0.50;99.90;;;;;;5079119;28;25124;-73
2023/01/26 11:43:26;;;;;;;41.55;15.63;;;0.50;99.90;;;;;;5091012;28;25050;-75
2023/01/26 11:46:16;;;;;;;;;;;0.60;99.90;;;;;;5098458;28;25076;-72
2023/01/26 11:48:55;;;;;;;44.25;17.00;;;0.60;99.90;;;;;;5098611;28;24062;-73
2023/01/26 11:52:04;;;;;;;38.45;13.85;;;0.60;99.90;;;;;;5098294;28;25071;-72
2023/01/26 11:54:57;;;;;;;43.00;16.30;;;0.60;99.90;;;;;;5084775;28;25080;-74
2023/01/26 11:58:00;;;;;;;40.22;14.95;;;0.70;99.90;;;;;;5098399;28;25072;-72
2023/01/26 12:00:52;;;;;;;44.53;16.83;;;0.70;99.90;;;;;;5097554;28;25125;-73
2023/01/26 12:03:55;;;;;;;45.67;16.85;;;0.70;99.90;;;;;;5098169;28;25120;-76
2023/01/26 12:06:45;;;;;;;37.40;13.13;;;0.70;99.90;;;;;;5077187;28;25068;-76
2023/01/26 12:09:22;;;;;;;40.47;15.18;;;0.60;99.90;;;;;;5097707;28;25056;-76
2023/01/26 12:12:04;;;;;;;37.35;14.32;;;0.60;99.90;;;;;;5098012;28;25069;-76
2023/01/26 12:14:51;;;;;;;47.65;16.30;;;0.60;99.90;;;;;;5097714;28;25135;-74
2023/01/26 12:17:22;;;;;;;43.85;15.95;;;0.50;99.90;;;;;;5097523;28;25082;-73
2023/01/26 12:20:11;;;;;;;40.15;15.40;;;0.50;99.90;;;;;;5097653;28;25123;-76
2023/01/26 12:22:44;;;;;;;42.95;14.38;;;0.40;99.90;;;;;;5079331;28;25057;-74
2023/01/26 12:25:24;;;;;;;43.67;15.93;;;0.40;99.90;;;;;;5079296;28;25072;-73
2023/01/26 12:28:23;;;;;;;41.58;15.30;;;0.40;99.90;;;;;;5098131;28;25112;-73
2023/01/26 12:31:16;;;;;;;43.28;15.27;;;0.40;99.90;;;;;;5097379;28;25051;-73
2023/01/26 12:33:44;;;;;;;40.90;14.68;;;0.30;99.90;;;;;;5097466;28;25109;-74
2023/01/26 12:36:20;;;;;;;46.30;16.65;;;0.30;99.90;;;;;;5097325;28;25057;-73
2023/01/26 12:38:54;;;;;;;49.77;14.63;;;0.30;99.90;;;;;;5097214;28;25108;-73
2023/01/26 12:41:28;;;;;;;37.92;14.98;;;0.30;99.90;;;;;;4990603;28;3014388;-74
2023/01/26 12:44:18;;;;;;;36.45;12.23;;;0.30;99.90;;;;;;5097140;28;25055;-73
2023/01/26 12:47:00;;;;;;;32.42;13.77;;;0.30;99.90;;;;;;5098047;28;25126;-73
2023/01/26 12:49:52;;;;;;;39.00;14.43;;;0.30;99.90;;;;;;5097986;28;24983;-77
2023/01/26 12:52:23;;;;;;;37.97;13.27;;;0.30;99.90;;;;;;5079720;28;25067;-77
2023/01/26 12:55:03;;;;;;;34.95;12.20;;;0.30;99.90;;;;;;5097906;28;25076;-77
2023/01/26 12:57:51;;;;;;;34.53;13.23;;;0.30;99.90;;;;;;5097839;28;25105;-77
2023/01/26 13:00:21;;;;;;;44.08;14.45;;;0.30;99.90;;;;;;5097512;28;25060;-77
2023/01/26 13:02:57;;;;;;;40.75;14.55;;;0.30;99.90;;;;;;5079549;28;25134;-78
2023/01/26 13:05:54;;;;;;;32.13;11.50;;;0.30;99.90;;;;;;5097433;28;25138;-76
2023/01/26 13:08:32;;;;;;;40.15;14.15;;;0.30;99.90;;;;;;5097809;28;25062;-76
2023/01/26 13:11:08;;;;;;;35.80;11.48;;;0.30;99.90;;;;;;5097607;28;25079;-77
2023/01/26 13:14:26;;;;;;;36.83;14.10;;;0.30;99.90;;;;;;5080886;28;25096;-77
2023/01/26 13:16:55;;;;;;;36.65;12.25;;;0.30;99.90;;;;;;5071424;28;25125;-79
2023/01/26 13:19:42;;;;;;;42.25;14.40;;;0.30;99.90;;;;;;5097620;28;25057;-79
2023/01/26 13:22:26;;;;;;;34.60;11.88;;;0.30;99.90;;;;;;5097431;28;25093;-76
2023/01/26 13:25:23;;;;;;;29.83;11.02;;;0.30;99.90;;;;;;5079109;28;25074;-78
2023/01/26 13:28:03;;;;;;;;;;;0.30;99.90;;;;;;5094391;28;25099;-78
2023/01/26 13:30:43;;;;;;;34.88;11.00;;;0.30;99.90;;;;;;5098011;28;25086;-77
2023/01/26 13:33:26;;;;;;;31.13;10.60;;;0.30;99.90;;;;;;5097007;28;25084;-75
2023/01/26 13:35:54;;;;;;;33.75;12.60;;;0.30;99.90;;;;;;5097167;28;25110;-76
2023/01/26 13:39:01;;;;;;;33.08;11.38;;;0.30;99.90;;;;;;5097018;28;25056;-75
2023/01/26 13:41:29;;;;;;;30.15;11.10;;;0.40;99.90;;;;;;5042148;28;25152;-75
2023/01/26 13:44:15;;;;;;;31.70;12.35;;;0.40;99.90;;;;;;5097370;28;25052;-75
2023/01/26 13:46:59;;;;;;;38.53;13.10;;;0.40;99.90;;;;;;5078670;28;25098;-76
2023/01/26 13:49:38;;;;;;;28.00;10.77;;;0.40;99.90;;;;;;5096966;28;25068;-76
2023/01/26 13:52:27;;;;;;;28.55;10.48;;;0.40;99.90;;;;;;5097031;28;25063;-75
2023/01/26 13:55:00;;;;;;;28.42;10.57;;;0.40;99.90;;;;;;5096553;28;25055;-74
2023/01/26 13:57:30;;;;;;;31.30;10.98;;;0.40;99.90;;;;;;5097020;28;25065;-75